L'Assomption, Canada
Current Conditions -  °F | °C
As of 4:00 PM on Thursday 20 Nov 2014 (Local Time) from CYHU Reporting Station
Overcast Overcast  
Wind Chill: 17°   Ceiling: 5500
Heat Index: 30°   Visibility: 9mi
Dew Point: 12°   Wind: 21mph
Humidity: 47%   Direction: 250°WSW
Pressure: 29.7"   Gusts: NA
Location:  45.82°N, 73.43°W
Report Text: CYHU 202100Z AUTO 25018KT 9SM BKN055 OVC076 M01/M11 A2970 RMK SLP060
Loading
Personal Weather Stations






























Interactive Weather Map New forecast layout! Learn more

10-Day Weather Forecast

Advertisements
Track Severe Weather on mobile